sensor_id;sensor_type;location;lat;lon;timestamp;P1;durP1;ratioP1;P2;durP2;ratioP2
61640;SDS011;62201;49.966;8.342;2023-05-10T00:00:04;0.28;;;0.20;;
61640;SDS011;62201;49.966;8.342;2023-05-10T00:02:30;2.00;;;0.52;;
61640;SDS011;62201;49.966;8.342;2023-05-10T00:04:56;1.02;;;0.28;;
61640;SDS011;62201;49.966;8.342;2023-05-10T00:07:21;2.45;;;0.30;;
61640;SDS011;62201;49.966;8.342;2023-05-10T00:09:47;4.40;;;0.28;;
61640;SDS011;62201;49.966;8.342;2023-05-10T00:12:12;0.40;;;0.20;;
61640;SDS011;62201;49.966;8.342;2023-05-10T00:14:37;0.65;;;0.20;;
61640;SDS011;62201;49.966;8.342;2023-05-10T00:17:03;0.77;;;0.30;;
61640;SDS011;62201;49.966;8.342;2023-05-10T00:19:28;1.98;;;0.20;;
61640;SDS011;62201;49.966;8.342;2023-05-10T00:21:54;0.95;;;0.28;;
61640;SDS011;62201;49.966;8.342;2023-05-10T00:24:19;0.70;;;0.32;;
61640;SDS011;62201;49.966;8.342;2023-05-10T00:26:44;7.63;;;0.47;;
61640;SDS011;62201;49.966;8.342;2023-05-10T00:29:10;2.20;;;0.45;;
61640;SDS011;62201;49.966;8.342;2023-05-10T00:31:35;1.52;;;0.20;;
61640;SDS011;62201;49.966;8.342;2023-05-10T00:34:00;1.38;;;0.30;;
61640;SDS011;62201;49.966;8.342;2023-05-10T00:36:26;0.32;;;0.30;;
61640;SDS011;62201;49.966;8.342;2023-05-10T00:38:52;0.75;;;0.40;;
61640;SDS011;62201;49.966;8.342;2023-05-10T00:41:18;0.40;;;0.38;;
61640;SDS011;62201;49.966;8.342;2023-05-10T00:43:44;5.35;;;0.40;;
61640;SDS011;62201;49.966;8.342;2023-05-10T00:46:09;0.52;;;0.22;;
61640;SDS011;62201;49.966;8.342;2023-05-10T00:48:34;0.93;;;0.40;;
61640;SDS011;62201;49.966;8.342;2023-05-10T00:51:01;1.05;;;0.28;;
61640;SDS011;62201;49.966;8.342;2023-05-10T00:53:27;1.00;;;0.40;;
61640;SDS011;62201;49.966;8.342;2023-05-10T00:55:52;1.33;;;0.40;;
61640;SDS011;62201;49.966;8.342;2023-05-10T00:58:18;0.80;;;0.40;;
61640;SDS011;62201;49.966;8.342;2023-05-10T01:00:43;0.30;;;0.30;;
61640;SDS011;62201;49.966;8.342;2023-05-10T01:03:11;1.05;;;0.40;;
61640;SDS011;62201;49.966;8.342;2023-05-10T01:05:37;1.17;;;0.50;;
61640;SDS011;62201;49.966;8.342;2023-05-10T01:08:02;0.20;;;0.20;;
61640;SDS011;62201;49.966;8.342;2023-05-10T01:10:28;0.65;;;0.35;;
61640;SDS011;62201;49.966;8.342;2023-05-10T01:12:54;1.85;;;0.40;;
61640;SDS011;62201;49.966;8.342;2023-05-10T01:15:20;1.40;;;0.40;;
61640;SDS011;62201;49.966;8.342;2023-05-10T01:17:46;2.63;;;0.35;;
61640;SDS011;62201;49.966;8.342;2023-05-10T01:20:13;1.55;;;0.30;;
61640;SDS011;62201;49.966;8.342;2023-05-10T01:28:16;1.02;;;0.35;;
61640;SDS011;62201;49.966;8.342;2023-05-10T01:34:08;0.65;;;0.43;;
61640;SDS011;62201;49.966;8.342;2023-05-10T01:36:41;1.30;;;0.30;;
61640;SDS011;62201;49.966;8.342;2023-05-10T01:47:20;1.55;;;0.30;;
61640;SDS011;62201;49.966;8.342;2023-05-10T01:49:47;1.23;;;0.30;;
61640;SDS011;62201;49.966;8.342;2023-05-10T01:52:16;2.38;;;0.60;;
61640;SDS011;62201;49.966;8.342;2023-05-10T01:54:47;4.95;;;0.40;;
61640;SDS011;62201;49.966;8.342;2023-05-10T01:57:18;1.25;;;0.40;;
61640;SDS011;62201;49.966;8.342;2023-05-10T01:59:46;0.40;;;0.30;;
61640;SDS011;62201;49.966;8.342;2023-05-10T02:02:15;0.85;;;0.50;;
61640;SDS011;62201;49.966;8.342;2023-05-10T02:04:43;4.05;;;0.40;;
61640;SDS011;62201;49.966;8.342;2023-05-10T02:07:10;0.52;;;0.40;;
61640;SDS011;62201;49.966;8.342;2023-05-10T02:09:36;2.58;;;0.50;;
61640;SDS011;62201;49.966;8.342;2023-05-10T02:12:03;3.90;;;0.50;;
61640;SDS011;62201;49.966;8.342;2023-05-10T02:14:32;4.22;;;0.50;;
61640;SDS011;62201;49.966;8.342;2023-05-10T02:17:00;1.08;;;0.30;;
61640;SDS011;62201;49.966;8.342;2023-05-10T02:19:27;1.77;;;0.43;;
61640;SDS011;62201;49.966;8.342;2023-05-10T02:21:55;1.38;;;0.43;;
61640;SDS011;62201;49.966;8.342;2023-05-10T02:24:21;2.03;;;0.40;;
61640;SDS011;62201;49.966;8.342;2023-05-10T02:26:49;4.68;;;0.43;;
61640;SDS011;62201;49.966;8.342;2023-05-10T02:29:16;3.75;;;0.40;;
61640;SDS011;62201;49.966;8.342;2023-05-10T02:31:42;2.28;;;0.30;;
61640;SDS011;62201;49.966;8.342;2023-05-10T02:34:09;3.55;;;0.40;;
61640;SDS011;62201;49.966;8.342;2023-05-10T02:36:36;0.47;;;0.40;;
61640;SDS011;62201;49.966;8.342;2023-05-10T02:39:03;2.00;;;0.50;;
61640;SDS011;62201;49.966;8.342;2023-05-10T02:41:31;5.40;;;0.40;;
61640;SDS011;62201;49.966;8.342;2023-05-10T02:43:59;1.33;;;0.30;;
61640;SDS011;62201;49.966;8.342;2023-05-10T02:46:27;1.60;;;0.40;;
61640;SDS011;62201;49.966;8.342;2023-05-10T02:48:53;2.70;;;0.40;;
61640;SDS011;62201;49.966;8.342;2023-05-10T02:51:19;0.60;;;0.57;;
61640;SDS011;62201;49.966;8.342;2023-05-10T02:53:49;1.08;;;0.40;;
61640;SDS011;62201;49.966;8.342;2023-05-10T02:56:25;0.85;;;0.30;;
61640;SDS011;62201;49.966;8.342;2023-05-10T02:58:55;2.72;;;0.30;;
61640;SDS011;62201;49.966;8.342;2023-05-10T03:01:20;4.72;;;0.50;;
61640;SDS011;62201;49.966;8.342;2023-05-10T03:03:46;2.47;;;0.38;;
61640;SDS011;62201;49.966;8.342;2023-05-10T03:06:11;1.23;;;0.40;;
61640;SDS011;62201;49.966;8.342;2023-05-10T03:08:36;8.50;;;0.50;;
61640;SDS011;62201;49.966;8.342;2023-05-10T03:22:30;2.72;;;0.45;;
61640;SDS011;62201;49.966;8.342;2023-05-10T03:24:59;0.77;;;0.30;;
61640;SDS011;62201;49.966;8.342;2023-05-10T03:27:27;0.43;;;0.35;;
61640;SDS011;62201;49.966;8.342;2023-05-10T03:29:54;1.63;;;0.55;;
61640;SDS011;62201;49.966;8.342;2023-05-10T03:32:21;3.53;;;0.50;;
61640;SDS011;62201;49.966;8.342;2023-05-10T03:34:47;5.78;;;0.55;;
61640;SDS011;62201;49.966;8.342;2023-05-10T03:37:12;1.10;;;0.40;;
61640;SDS011;62201;49.966;8.342;2023-05-10T03:39:38;0.85;;;0.50;;
61640;SDS011;62201;49.966;8.342;2023-05-10T03:42:03;3.55;;;0.70;;
61640;SDS011;62201;49.966;8.342;2023-05-10T03:44:29;2.90;;;0.52;;
61640;SDS011;62201;49.966;8.342;2023-05-10T03:46:54;3.17;;;0.77;;
61640;SDS011;62201;49.966;8.342;2023-05-10T03:49:21;1.13;;;0.60;;
61640;SDS011;62201;49.966;8.342;2023-05-10T03:51:47;1.88;;;0.63;;
61640;SDS011;62201;49.966;8.342;2023-05-10T03:54:12;2.10;;;0.60;;
61640;SDS011;62201;49.966;8.342;2023-05-10T03:56:38;3.38;;;0.63;;
61640;SDS011;62201;49.966;8.342;2023-05-10T03:59:03;0.85;;;0.60;;
61640;SDS011;62201;49.966;8.342;2023-05-10T04:01:32;2.90;;;0.70;;
61640;SDS011;62201;49.966;8.342;2023-05-10T04:03:58;5.05;;;0.70;;
61640;SDS011;62201;49.966;8.342;2023-05-10T04:06:23;2.13;;;0.50;;
61640;SDS011;62201;49.966;8.342;2023-05-10T04:08:49;1.35;;;0.70;;
61640;SDS011;62201;49.966;8.342;2023-05-10T04:11:14;2.63;;;0.70;;
61640;SDS011;62201;49.966;8.342;2023-05-10T04:13:40;1.15;;;0.70;;
61640;SDS011;62201;49.966;8.342;2023-05-10T04:16:05;0.95;;;0.68;;
61640;SDS011;62201;49.966;8.342;2023-05-10T04:18:31;6.85;;;0.93;;
61640;SDS011;62201;49.966;8.342;2023-05-10T04:20:56;1.58;;;0.70;;
61640;SDS011;62201;49.966;8.342;2023-05-10T04:23:22;2.15;;;0.70;;
61640;SDS011;62201;49.966;8.342;2023-05-10T04:25:48;1.70;;;0.70;;
61640;SDS011;62201;49.966;8.342;2023-05-10T04:28:13;1.35;;;0.70;;
61640;SDS011;62201;49.966;8.342;2023-05-10T04:30:39;4.10;;;1.23;;
61640;SDS011;62201;49.966;8.342;2023-05-10T04:33:05;8.07;;;1.00;;
61640;SDS011;62201;49.966;8.342;2023-05-10T04:35:30;3.92;;;0.98;;
61640;SDS011;62201;49.966;8.342;2023-05-10T04:37:56;2.10;;;0.95;;
61640;SDS011;62201;49.966;8.342;2023-05-10T04:40:21;1.30;;;0.90;;
61640;SDS011;62201;49.966;8.342;2023-05-10T04:42:47;2.72;;;0.90;;
61640;SDS011;62201;49.966;8.342;2023-05-10T04:45:12;6.55;;;1.30;;
61640;SDS011;62201;49.966;8.342;2023-05-10T04:47:39;2.33;;;1.33;;
61640;SDS011;62201;49.966;8.342;2023-05-10T04:50:05;6.32;;;1.20;;
61640;SDS011;62201;49.966;8.342;2023-05-10T04:52:32;2.00;;;0.90;;
61640;SDS011;62201;49.966;8.342;2023-05-10T04:54:57;3.10;;;1.10;;
61640;SDS011;62201;49.966;8.342;2023-05-10T04:57:22;2.20;;;0.90;;
61640;SDS011;62201;49.966;8.342;2023-05-10T04:59:48;5.68;;;1.15;;
61640;SDS011;62201;49.966;8.342;2023-05-10T05:02:13;1.90;;;1.02;;
61640;SDS011;62201;49.966;8.342;2023-05-10T05:04:39;3.25;;;1.35;;
61640;SDS011;62201;49.966;8.342;2023-05-10T05:07:04;5.60;;;1.30;;
61640;SDS011;62201;49.966;8.342;2023-05-10T05:09:29;4.68;;;1.35;;
61640;SDS011;62201;49.966;8.342;2023-05-10T05:11:56;3.22;;;1.30;;
61640;SDS011;62201;49.966;8.342;2023-05-10T05:14:22;5.88;;;1.33;;
61640;SDS011;62201;49.966;8.342;2023-05-10T05:16:49;3.50;;;1.45;;
61640;SDS011;62201;49.966;8.342;2023-05-10T05:19:15;7.35;;;1.60;;
61640;SDS011;62201;49.966;8.342;2023-05-10T05:21:40;3.88;;;1.52;;
61640;SDS011;62201;49.966;8.342;2023-05-10T05:24:06;7.45;;;1.42;;
61640;SDS011;62201;49.966;8.342;2023-05-10T05:26:31;5.97;;;1.35;;
61640;SDS011;62201;49.966;8.342;2023-05-10T05:28:57;3.72;;;1.55;;
61640;SDS011;62201;49.966;8.342;2023-05-10T05:31:22;3.22;;;1.50;;
61640;SDS011;62201;49.966;8.342;2023-05-10T05:33:48;5.38;;;1.50;;
61640;SDS011;62201;49.966;8.342;2023-05-10T05:36:13;7.25;;;1.52;;
61640;SDS011;62201;49.966;8.342;2023-05-10T05:38:38;6.07;;;1.90;;
61640;SDS011;62201;49.966;8.342;2023-05-10T05:41:04;4.28;;;1.60;;
61640;SDS011;62201;49.966;8.342;2023-05-10T05:43:29;4.80;;;1.67;;
61640;SDS011;62201;49.966;8.342;2023-05-10T05:45:55;2.40;;;1.30;;
61640;SDS011;62201;49.966;8.342;2023-05-10T05:48:22;5.20;;;1.33;;
61640;SDS011;62201;49.966;8.342;2023-05-10T05:50:48;4.72;;;1.40;;
61640;SDS011;62201;49.966;8.342;2023-05-10T05:53:13;6.28;;;1.35;;
61640;SDS011;62201;49.966;8.342;2023-05-10T05:55:38;3.95;;;1.30;;
61640;SDS011;62201;49.966;8.342;2023-05-10T05:58:04;5.97;;;1.67;;
61640;SDS011;62201;49.966;8.342;2023-05-10T06:00:29;4.63;;;1.35;;
61640;SDS011;62201;49.966;8.342;2023-05-10T06:02:54;6.60;;;1.52;;
61640;SDS011;62201;49.966;8.342;2023-05-10T06:05:20;5.65;;;1.58;;
61640;SDS011;62201;49.966;8.342;2023-05-10T06:07:46;8.13;;;2.33;;
61640;SDS011;62201;49.966;8.342;2023-05-10T06:10:12;4.15;;;1.55;;
61640;SDS011;62201;49.966;8.342;2023-05-10T06:12:37;9.23;;;1.80;;
61640;SDS011;62201;49.966;8.342;2023-05-10T06:15:03;3.67;;;1.55;;
61640;SDS011;62201;49.966;8.342;2023-05-10T06:17:28;5.47;;;1.85;;
61640;SDS011;62201;49.966;8.342;2023-05-10T06:19:54;6.55;;;1.40;;
61640;SDS011;62201;49.966;8.342;2023-05-10T06:22:20;7.72;;;1.70;;
61640;SDS011;62201;49.966;8.342;2023-05-10T06:24:47;5.88;;;1.80;;
61640;SDS011;62201;49.966;8.342;2023-05-10T06:27:13;5.53;;;1.60;;
61640;SDS011;62201;49.966;8.342;2023-05-10T06:29:38;5.28;;;1.63;;
61640;SDS011;62201;49.966;8.342;2023-05-10T06:32:04;6.18;;;1.60;;
61640;SDS011;62201;49.966;8.342;2023-05-10T06:34:29;9.50;;;2.00;;
61640;SDS011;62201;49.966;8.342;2023-05-10T06:36:54;5.50;;;1.60;;
61640;SDS011;62201;49.966;8.342;2023-05-10T06:39:20;3.80;;;1.85;;
61640;SDS011;62201;49.966;8.342;2023-05-10T06:41:45;9.75;;;1.75;;
61640;SDS011;62201;49.966;8.342;2023-05-10T06:44:10;6.95;;;1.90;;
61640;SDS011;62201;49.966;8.342;2023-05-10T06:46:36;3.70;;;1.30;;
61640;SDS011;62201;49.966;8.342;2023-05-10T06:49:01;5.22;;;1.60;;
61640;SDS011;62201;49.966;8.342;2023-05-10T06:51:27;4.28;;;1.40;;
61640;SDS011;62201;49.966;8.342;2023-05-10T06:53:52;6.13;;;1.50;;
61640;SDS011;62201;49.966;8.342;2023-05-10T06:56:17;2.67;;;1.33;;
61640;SDS011;62201;49.966;8.342;2023-05-10T06:58:46;7.10;;;1.50;;
61640;SDS011;62201;49.966;8.342;2023-05-10T07:01:11;6.35;;;1.92;;
61640;SDS011;62201;49.966;8.342;2023-05-10T07:03:37;7.93;;;1.48;;
61640;SDS011;62201;49.966;8.342;2023-05-10T07:06:03;4.80;;;1.30;;
61640;SDS011;62201;49.966;8.342;2023-05-10T07:08:31;3.35;;;1.30;;
61640;SDS011;62201;49.966;8.342;2023-05-10T07:11:03;3.42;;;1.48;;
61640;SDS011;62201;49.966;8.342;2023-05-10T07:15:56;7.03;;;1.40;;
61640;SDS011;62201;49.966;8.342;2023-05-10T07:18:21;4.43;;;1.42;;
61640;SDS011;62201;49.966;8.342;2023-05-10T07:20:46;5.35;;;1.20;;
61640;SDS011;62201;49.966;8.342;2023-05-10T07:23:12;9.45;;;1.77;;
61640;SDS011;62201;49.966;8.342;2023-05-10T07:25:37;6.88;;;1.20;;
61640;SDS011;62201;49.966;8.342;2023-05-10T07:28:02;3.05;;;1.20;;
61640;SDS011;62201;49.966;8.342;2023-05-10T07:30:28;5.88;;;1.40;;
61640;SDS011;62201;49.966;8.342;2023-05-10T07:32:53;6.30;;;1.30;;
61640;SDS011;62201;49.966;8.342;2023-05-10T07:35:19;3.50;;;1.50;;
61640;SDS011;62201;49.966;8.342;2023-05-10T07:37:44;2.95;;;1.40;;
61640;SDS011;62201;49.966;8.342;2023-05-10T07:40:10;5.35;;;1.20;;
61640;SDS011;62201;49.966;8.342;2023-05-10T07:42:35;3.65;;;1.30;;
61640;SDS011;62201;49.966;8.342;2023-05-10T07:45:01;3.88;;;1.23;;
61640;SDS011;62201;49.966;8.342;2023-05-10T07:47:26;4.82;;;1.25;;
61640;SDS011;62201;49.966;8.342;2023-05-10T07:49:52;3.20;;;1.23;;
61640;SDS011;62201;49.966;8.342;2023-05-10T07:52:17;5.00;;;1.30;;
61640;SDS011;62201;49.966;8.342;2023-05-10T07:54:42;6.00;;;1.38;;
61640;SDS011;62201;49.966;8.342;2023-05-10T07:57:08;4.57;;;1.35;;
61640;SDS011;62201;49.966;8.342;2023-05-10T07:59:33;2.95;;;1.10;;
61640;SDS011;62201;49.966;8.342;2023-05-10T08:01:59;4.05;;;1.23;;
61640;SDS011;62201;49.966;8.342;2023-05-10T08:04:24;4.43;;;1.05;;
61640;SDS011;62201;49.966;8.342;2023-05-10T08:06:49;2.70;;;1.20;;
61640;SDS011;62201;49.966;8.342;2023-05-10T08:09:15;3.70;;;1.30;;
61640;SDS011;62201;49.966;8.342;2023-05-10T08:11:41;3.90;;;1.30;;
61640;SDS011;62201;49.966;8.342;2023-05-10T08:14:06;5.22;;;1.52;;
61640;SDS011;62201;49.966;8.342;2023-05-10T08:16:32;5.43;;;1.48;;
61640;SDS011;62201;49.966;8.342;2023-05-10T08:18:57;3.75;;;1.15;;
61640;SDS011;62201;49.966;8.342;2023-05-10T08:21:22;5.72;;;1.40;;
61640;SDS011;62201;49.966;8.342;2023-05-10T08:23:48;7.95;;;1.70;;
61640;SDS011;62201;49.966;8.342;2023-05-10T08:26:14;5.63;;;1.65;;
61640;SDS011;62201;49.966;8.342;2023-05-10T08:28:39;3.38;;;1.40;;
61640;SDS011;62201;49.966;8.342;2023-05-10T08:31:05;6.68;;;1.60;;
61640;SDS011;62201;49.966;8.342;2023-05-10T08:33:30;6.53;;;1.75;;
61640;SDS011;62201;49.966;8.342;2023-05-10T08:35:56;3.47;;;1.92;;
61640;SDS011;62201;49.966;8.342;2023-05-10T08:38:21;6.15;;;1.63;;
61640;SDS011;62201;49.966;8.342;2023-05-10T08:40:46;4.25;;;1.80;;
61640;SDS011;62201;49.966;8.342;2023-05-10T08:43:14;6.18;;;1.83;;
61640;SDS011;62201;49.966;8.342;2023-05-10T08:45:41;3.63;;;1.30;;
61640;SDS011;62201;49.966;8.342;2023-05-10T08:48:09;5.75;;;1.48;;
61640;SDS011;62201;49.966;8.342;2023-05-10T08:50:36;3.88;;;1.50;;
61640;SDS011;62201;49.966;8.342;2023-05-10T08:53:04;5.38;;;1.70;;
61640;SDS011;62201;49.966;8.342;2023-05-10T08:55:32;4.90;;;1.40;;
61640;SDS011;62201;49.966;8.342;2023-05-10T08:57:59;4.97;;;1.70;;
61640;SDS011;62201;49.966;8.342;2023-05-10T09:00:25;8.00;;;1.83;;
61640;SDS011;62201;49.966;8.342;2023-05-10T09:02:51;6.18;;;1.70;;
61640;SDS011;62201;49.966;8.342;2023-05-10T09:05:18;6.47;;;1.40;;
61640;SDS011;62201;49.966;8.342;2023-05-10T09:07:43;4.28;;;1.40;;
61640;SDS011;62201;49.966;8.342;2023-05-10T09:10:09;6.85;;;1.52;;
61640;SDS011;62201;49.966;8.342;2023-05-10T09:12:36;5.60;;;1.60;;
61640;SDS011;62201;49.966;8.342;2023-05-10T09:15:02;7.72;;;1.20;;
61640;SDS011;62201;49.966;8.342;2023-05-10T09:17:29;6.45;;;1.38;;
61640;SDS011;62201;49.966;8.342;2023-05-10T09:20:02;6.15;;;1.63;;
61640;SDS011;62201;49.966;8.342;2023-05-10T09:22:32;12.55;;;1.90;;
61640;SDS011;62201;49.966;8.342;2023-05-10T09:27:34;4.70;;;1.52;;
61640;SDS011;62201;49.966;8.342;2023-05-10T09:30:00;2.92;;;0.90;;
61640;SDS011;62201;49.966;8.342;2023-05-10T09:32:45;4.82;;;0.93;;
61640;SDS011;62201;49.966;8.342;2023-05-10T09:35:19;6.43;;;1.10;;
61640;SDS011;62201;49.966;8.342;2023-05-10T09:37:48;3.38;;;1.00;;
61640;SDS011;62201;49.966;8.342;2023-05-10T09:40:16;4.75;;;0.98;;
61640;SDS011;62201;49.966;8.342;2023-05-10T09:42:50;2.92;;;1.08;;
61640;SDS011;62201;49.966;8.342;2023-05-10T09:45:27;3.22;;;0.90;;
61640;SDS011;62201;49.966;8.342;2023-05-10T09:47:54;6.45;;;1.00;;
61640;SDS011;62201;49.966;8.342;2023-05-10T09:50:20;1.92;;;0.65;;
61640;SDS011;62201;49.966;8.342;2023-05-10T09:52:53;3.38;;;0.63;;
61640;SDS011;62201;49.966;8.342;2023-05-10T09:55:23;4.55;;;0.80;;
61640;SDS011;62201;49.966;8.342;2023-05-10T09:57:57;4.07;;;0.60;;
61640;SDS011;62201;49.966;8.342;2023-05-10T10:00:24;1.42;;;0.47;;
61640;SDS011;62201;49.966;8.342;2023-05-10T10:02:55;1.13;;;0.65;;
61640;SDS011;62201;49.966;8.342;2023-05-10T10:05:27;1.23;;;0.60;;
61640;SDS011;62201;49.966;8.342;2023-05-10T10:07:53;5.53;;;0.70;;
61640;SDS011;62201;49.966;8.342;2023-05-10T10:10:20;3.72;;;0.80;;
61640;SDS011;62201;49.966;8.342;2023-05-10T10:12:46;1.27;;;0.50;;
61640;SDS011;62201;49.966;8.342;2023-05-10T10:15:11;0.47;;;0.30;;
61640;SDS011;62201;49.966;8.342;2023-05-10T10:17:37;0.45;;;0.30;;
61640;SDS011;62201;49.966;8.342;2023-05-10T10:20:06;1.35;;;0.43;;
61640;SDS011;62201;49.966;8.342;2023-05-10T10:22:32;0.40;;;0.30;;
61640;SDS011;62201;49.966;8.342;2023-05-10T10:24:57;1.15;;;0.38;;
61640;SDS011;62201;49.966;8.342;2023-05-10T10:35:39;2.60;;;0.28;;
61640;SDS011;62201;49.966;8.342;2023-05-10T10:38:05;2.50;;;0.40;;
61640;SDS011;62201;49.966;8.342;2023-05-10T10:40:33;1.67;;;0.40;;
61640;SDS011;62201;49.966;8.342;2023-05-10T10:43:21;0.93;;;0.50;;
61640;SDS011;62201;49.966;8.342;2023-05-10T10:48:49;2.55;;;0.50;;
61640;SDS011;62201;49.966;8.342;2023-05-10T10:54:08;1.60;;;0.50;;
61640;SDS011;62201;49.966;8.342;2023-05-10T10:56:35;2.15;;;0.60;;
61640;SDS011;62201;49.966;8.342;2023-05-10T10:59:00;1.38;;;0.50;;
61640;SDS011;62201;49.966;8.342;2023-05-10T11:01:26;6.95;;;0.75;;
61640;SDS011;62201;49.966;8.342;2023-05-10T11:06:29;2.28;;;0.90;;
61640;SDS011;62201;49.966;8.342;2023-05-10T11:09:00;1.15;;;0.50;;
61640;SDS011;62201;49.966;8.342;2023-05-10T11:11:31;5.00;;;0.50;;
61640;SDS011;62201;49.966;8.342;2023-05-10T11:13:56;1.67;;;0.40;;
61640;SDS011;62201;49.966;8.342;2023-05-10T11:16:44;1.48;;;0.50;;
61640;SDS011;62201;49.966;8.342;2023-05-10T11:19:15;1.48;;;0.38;;
61640;SDS011;62201;49.966;8.342;2023-05-10T11:21:49;1.92;;;0.50;;
61640;SDS011;62201;49.966;8.342;2023-05-10T11:24:17;1.52;;;0.30;;
61640;SDS011;62201;49.966;8.342;2023-05-10T11:26:44;1.17;;;0.40;;
61640;SDS011;62201;49.966;8.342;2023-05-10T11:29:12;3.03;;;0.40;;
61640;SDS011;62201;49.966;8.342;2023-05-10T11:31:44;0.93;;;0.40;;
61640;SDS011;62201;49.966;8.342;2023-05-10T11:34:10;0.40;;;0.40;;
61640;SDS011;62201;49.966;8.342;2023-05-10T11:36:36;1.05;;;0.40;;
61640;SDS011;62201;49.966;8.342;2023-05-10T11:39:02;0.73;;;0.40;;
61640;SDS011;62201;49.966;8.342;2023-05-10T11:41:28;3.40;;;0.60;;
61640;SDS011;62201;49.966;8.342;2023-05-10T11:43:55;0.30;;;0.30;;
61640;SDS011;62201;49.966;8.342;2023-05-10T11:46:22;1.55;;;0.60;;
61640;SDS011;62201;49.966;8.342;2023-05-10T11:48:49;1.75;;;0.40;;
61640;SDS011;62201;49.966;8.342;2023-05-10T11:51:20;0.63;;;0.30;;
61640;SDS011;62201;49.966;8.342;2023-05-10T11:53:46;3.83;;;0.38;;
61640;SDS011;62201;49.966;8.342;2023-05-10T11:56:12;2.80;;;0.30;;
61640;SDS011;62201;49.966;8.342;2023-05-10T11:58:38;0.40;;;0.30;;
61640;SDS011;62201;49.966;8.342;2023-05-10T12:01:04;1.27;;;0.40;;
61640;SDS011;62201;49.966;8.342;2023-05-10T12:03:31;1.98;;;0.30;;
61640;SDS011;62201;49.966;8.342;2023-05-10T12:05:57;0.98;;;0.30;;
61640;SDS011;62201;49.966;8.342;2023-05-10T12:08:24;1.17;;;0.63;;
61640;SDS011;62201;49.966;8.342;2023-05-10T12:10:51;1.38;;;0.40;;
61640;SDS011;62201;49.966;8.342;2023-05-10T12:13:28;3.05;;;0.50;;
61640;SDS011;62201;49.966;8.342;2023-05-10T12:15:53;3.83;;;0.63;;
61640;SDS011;62201;49.966;8.342;2023-05-10T12:18:22;1.42;;;0.50;;
61640;SDS011;62201;49.966;8.342;2023-05-10T12:20:52;0.88;;;0.50;;
61640;SDS011;62201;49.966;8.342;2023-05-10T12:23:18;0.50;;;0.40;;
61640;SDS011;62201;49.966;8.342;2023-05-10T12:25:45;0.95;;;0.40;;
61640;SDS011;62201;49.966;8.342;2023-05-10T12:28:10;0.93;;;0.57;;
61640;SDS011;62201;49.966;8.342;2023-05-10T12:30:36;1.50;;;0.60;;
61640;SDS011;62201;49.966;8.342;2023-05-10T12:33:12;1.25;;;0.60;;
61640;SDS011;62201;49.966;8.342;2023-05-10T12:35:43;2.53;;;0.57;;
61640;SDS011;62201;49.966;8.342;2023-05-10T12:40:57;1.80;;;0.47;;
61640;SDS011;62201;49.966;8.342;2023-05-10T12:43:30;2.05;;;0.60;;
61640;SDS011;62201;49.966;8.342;2023-05-10T12:45:56;1.75;;;0.50;;
61640;SDS011;62201;49.966;8.342;2023-05-10T12:48:22;0.60;;;0.50;;
61640;SDS011;62201;49.966;8.342;2023-05-10T12:50:47;0.85;;;0.50;;
61640;SDS011;62201;49.966;8.342;2023-05-10T12:53:13;1.33;;;0.47;;
61640;SDS011;62201;49.966;8.342;2023-05-10T12:55:40;1.70;;;0.60;;
61640;SDS011;62201;49.966;8.342;2023-05-10T12:58:06;2.28;;;0.60;;
61640;SDS011;62201;49.966;8.342;2023-05-10T13:00:32;3.60;;;0.52;;
61640;SDS011;62201;49.966;8.342;2023-05-10T13:02:57;4.45;;;0.75;;
61640;SDS011;62201;49.966;8.342;2023-05-10T13:05:22;2.92;;;0.80;;
61640;SDS011;62201;49.966;8.342;2023-05-10T13:07:48;1.80;;;0.43;;
61640;SDS011;62201;49.966;8.342;2023-05-10T13:10:13;1.70;;;0.60;;
61640;SDS011;62201;49.966;8.342;2023-05-10T13:12:39;3.20;;;0.63;;
61640;SDS011;62201;49.966;8.342;2023-05-10T13:15:04;3.25;;;0.98;;
61640;SDS011;62201;49.966;8.342;2023-05-10T13:17:30;4.68;;;0.57;;
61640;SDS011;62201;49.966;8.342;2023-05-10T13:19:55;2.10;;;0.90;;
61640;SDS011;62201;49.966;8.342;2023-05-10T13:22:21;3.53;;;0.80;;
61640;SDS011;62201;49.966;8.342;2023-05-10T13:24:46;1.58;;;0.65;;
61640;SDS011;62201;49.966;8.342;2023-05-10T13:27:12;4.28;;;0.82;;
61640;SDS011;62201;49.966;8.342;2023-05-10T13:29:37;2.55;;;0.60;;
61640;SDS011;62201;49.966;8.342;2023-05-10T13:32:03;2.30;;;0.60;;
61640;SDS011;62201;49.966;8.342;2023-05-10T13:34:28;4.07;;;0.88;;
61640;SDS011;62201;49.966;8.342;2023-05-10T13:36:53;2.45;;;0.75;;
61640;SDS011;62201;49.966;8.342;2023-05-10T13:39:20;4.45;;;1.00;;
61640;SDS011;62201;49.966;8.342;2023-05-10T13:41:46;1.92;;;0.80;;
61640;SDS011;62201;49.966;8.342;2023-05-10T13:44:14;2.88;;;0.60;;
61640;SDS011;62201;49.966;8.342;2023-05-10T13:46:40;4.32;;;1.05;;
61640;SDS011;62201;49.966;8.342;2023-05-10T13:49:07;3.20;;;0.70;;
61640;SDS011;62201;49.966;8.342;2023-05-10T13:51:33;3.30;;;0.70;;
61640;SDS011;62201;49.966;8.342;2023-05-10T13:53:59;3.10;;;0.70;;
61640;SDS011;62201;49.966;8.342;2023-05-10T13:56:24;4.13;;;0.82;;
61640;SDS011;62201;49.966;8.342;2023-05-10T13:58:50;2.00;;;1.00;;
61640;SDS011;62201;49.966;8.342;2023-05-10T14:01:16;1.80;;;0.65;;
61640;SDS011;62201;49.966;8.342;2023-05-10T14:03:41;3.03;;;0.80;;
61640;SDS011;62201;49.966;8.342;2023-05-10T14:06:07;4.55;;;0.65;;
61640;SDS011;62201;49.966;8.342;2023-05-10T14:08:33;2.95;;;0.70;;
61640;SDS011;62201;49.966;8.342;2023-05-10T14:10:59;2.92;;;0.70;;
61640;SDS011;62201;49.966;8.342;2023-05-10T14:13:25;1.10;;;0.45;;
61640;SDS011;62201;49.966;8.342;2023-05-10T14:15:50;2.30;;;0.80;;
61640;SDS011;62201;49.966;8.342;2023-05-10T14:18:16;1.75;;;0.60;;
61640;SDS011;62201;49.966;8.342;2023-05-10T14:20:41;3.53;;;0.65;;
61640;SDS011;62201;49.966;8.342;2023-05-10T14:23:07;3.10;;;0.63;;
61640;SDS011;62201;49.966;8.342;2023-05-10T14:25:32;1.90;;;0.60;;
61640;SDS011;62201;49.966;8.342;2023-05-10T14:27:58;4.28;;;0.80;;
61640;SDS011;62201;49.966;8.342;2023-05-10T14:30:23;1.85;;;0.80;;
61640;SDS011;62201;49.966;8.342;2023-05-10T14:32:49;3.05;;;0.77;;
61640;SDS011;62201;49.966;8.342;2023-05-10T14:35:14;1.95;;;0.70;;
61640;SDS011;62201;49.966;8.342;2023-05-10T14:37:39;2.72;;;0.77;;
61640;SDS011;62201;49.966;8.342;2023-05-10T14:40:05;3.92;;;0.90;;
61640;SDS011;62201;49.966;8.342;2023-05-10T14:42:31;4.43;;;0.70;;
61640;SDS011;62201;49.966;8.342;2023-05-10T14:44:56;3.25;;;0.60;;
61640;SDS011;62201;49.966;8.342;2023-05-10T14:47:22;4.43;;;0.82;;
61640;SDS011;62201;49.966;8.342;2023-05-10T14:49:47;2.88;;;0.80;;
61640;SDS011;62201;49.966;8.342;2023-05-10T14:52:13;1.92;;;0.90;;
61640;SDS011;62201;49.966;8.342;2023-05-10T14:54:39;4.88;;;1.05;;
61640;SDS011;62201;49.966;8.342;2023-05-10T14:57:05;5.97;;;0.70;;
61640;SDS011;62201;49.966;8.342;2023-05-10T14:59:31;2.47;;;0.73;;
61640;SDS011;62201;49.966;8.342;2023-05-10T15:01:56;2.38;;;0.77;;
61640;SDS011;62201;49.966;8.342;2023-05-10T15:04:22;3.90;;;0.93;;
61640;SDS011;62201;49.966;8.342;2023-05-10T15:06:47;1.75;;;0.68;;
61640;SDS011;62201;49.966;8.342;2023-05-10T15:09:13;3.63;;;0.70;;
61640;SDS011;62201;49.966;8.342;2023-05-10T15:11:38;2.95;;;0.82;;
61640;SDS011;62201;49.966;8.342;2023-05-10T15:14:03;6.43;;;1.33;;
61640;SDS011;62201;49.966;8.342;2023-05-10T15:16:29;6.53;;;0.80;;
61640;SDS011;62201;49.966;8.342;2023-05-10T15:18:54;4.68;;;0.90;;
61640;SDS011;62201;49.966;8.342;2023-05-10T15:21:20;4.45;;;0.82;;
61640;SDS011;62201;49.966;8.342;2023-05-10T15:23:45;2.33;;;0.70;;
61640;SDS011;62201;49.966;8.342;2023-05-10T15:26:11;4.75;;;0.82;;
61640;SDS011;62201;49.966;8.342;2023-05-10T15:28:36;3.22;;;0.80;;
61640;SDS011;62201;49.966;8.342;2023-05-10T15:31:01;2.83;;;0.88;;
61640;SDS011;62201;49.966;8.342;2023-05-10T15:33:27;4.72;;;0.80;;
61640;SDS011;62201;49.966;8.342;2023-05-10T15:35:53;4.03;;;1.23;;